createdAt,value
2023-03-02T00:01:40.439Z,-3.94
2023-03-02T00:04:31.675Z,-3.95
2023-03-02T00:07:33.561Z,-4.05
2023-03-02T00:10:22.142Z,-4.17
2023-03-02T00:13:13.643Z,-4.28
2023-03-02T00:16:02.254Z,-4.39
2023-03-02T00:18:51.807Z,-4.40
2023-03-02T00:21:41.269Z,-4.40
2023-03-02T00:24:30.227Z,-4.39
2023-03-02T00:27:18.778Z,-4.34
2023-03-02T00:30:09.165Z,-4.30
2023-03-02T00:32:58.588Z,-4.27
2023-03-02T00:35:48.036Z,-4.31
2023-03-02T00:38:36.668Z,-4.41
2023-03-02T00:41:25.636Z,-4.46
2023-03-02T00:44:17.730Z,-4.49
2023-03-02T00:47:06.787Z,-4.51
2023-03-02T00:49:56.260Z,-4.51
2023-03-02T00:52:45.345Z,-4.51
2023-03-02T00:55:34.787Z,-4.48
2023-03-02T00:58:24.034Z,-4.46
2023-03-02T01:01:13.774Z,-4.43
2023-03-02T01:04:07.557Z,-4.41
2023-03-02T01:07:00.284Z,-4.39
2023-03-02T01:09:49.572Z,-4.38
2023-03-02T01:12:38.323Z,-4.41
2023-03-02T01:15:27.199Z,-4.50
2023-03-02T01:18:15.825Z,-4.58
2023-03-02T01:21:08.152Z,-4.61
2023-03-02T01:23:56.756Z,-4.62
2023-03-02T01:26:45.617Z,-4.62
2023-03-02T01:29:34.318Z,-4.61
2023-03-02T01:32:23.538Z,-4.59
2023-03-02T01:35:12.464Z,-4.58
2023-03-02T01:38:01.538Z,-4.56
2023-03-02T01:40:50.073Z,-4.55
2023-03-02T01:43:39.509Z,-4.53
2023-03-02T01:46:35.302Z,-4.54
2023-03-02T01:49:25.896Z,-4.55
2023-03-02T01:52:19.672Z,-4.62
2023-03-02T01:55:12.892Z,-4.66
2023-03-02T01:58:04.564Z,-4.68
2023-03-02T02:06:10.653Z,-4.72
2023-03-02T02:09:01.491Z,-4.71
2023-03-02T02:11:50.325Z,-4.68
2023-03-02T02:14:39.625Z,-4.67
2023-03-02T02:17:30.130Z,-4.66
2023-03-02T02:20:24.257Z,-4.64
2023-03-02T02:23:24.211Z,-4.64
2023-03-02T02:26:22.347Z,-4.68
2023-03-02T02:29:16.059Z,-4.73
2023-03-02T02:32:26.646Z,-4.81
2023-03-02T02:35:28.575Z,-4.91
2023-03-02T02:38:20.432Z,-4.97
2023-03-02T02:41:17.934Z,-4.97
2023-03-02T02:44:09.703Z,-4.99
2023-03-02T02:46:58.371Z,-5.04
2023-03-02T02:49:50.578Z,-5.06
2023-03-02T02:52:41.800Z,-5.03
2023-03-02T02:55:32.789Z,-5.00
2023-03-02T02:58:25.282Z,-5.00
2023-03-02T03:01:17.187Z,-5.00
2023-03-02T03:04:07.152Z,-4.99
2023-03-02T03:07:01.676Z,-4.99
2023-03-02T03:10:13.838Z,-5.00
2023-03-02T03:13:02.831Z,-5.03
2023-03-02T03:15:51.817Z,-5.06
2023-03-02T03:18:44.841Z,-5.09
2023-03-02T03:21:34.067Z,-5.11
2023-03-02T03:24:24.322Z,-5.13
2023-03-02T03:27:16.496Z,-5.11
2023-03-02T03:30:06.200Z,-5.08
2023-03-02T03:32:56.537Z,-5.06
2023-03-02T03:35:45.484Z,-5.06
2023-03-02T03:38:34.458Z,-5.06
2023-03-02T03:41:24.615Z,-5.08
2023-03-02T03:44:13.713Z,-5.09
2023-03-02T03:47:03.863Z,-5.11
2023-03-02T03:49:53.161Z,-5.14
2023-03-02T03:52:42.808Z,-5.19
2023-03-02T03:55:36.277Z,-5.27
2023-03-02T03:58:25.507Z,-5.35
2023-03-02T04:01:14.296Z,-5.39
2023-03-02T04:04:04.611Z,-5.40
2023-03-02T04:06:54.718Z,-5.36
2023-03-02T04:09:44.000Z,-5.32
2023-03-02T04:12:37.638Z,-5.30
2023-03-02T04:15:27.022Z,-5.33
2023-03-02T04:18:16.250Z,-5.30
2023-03-02T04:21:05.201Z,-5.29
2023-03-02T04:23:54.392Z,-5.30
2023-03-02T04:26:45.425Z,-5.32
2023-03-02T04:29:34.936Z,-5.36
2023-03-02T04:32:25.351Z,-5.43
2023-03-02T04:35:16.798Z,-5.51
2023-03-02T04:38:05.579Z,-5.57
2023-03-02T04:40:54.547Z,-5.60
2023-03-02T04:43:43.480Z,-5.57
2023-03-02T04:46:34.891Z,-5.53
2023-03-02T04:49:23.864Z,-5.49
2023-03-02T04:52:12.932Z,-5.44
2023-03-02T04:55:01.959Z,-5.42
2023-03-02T04:57:51.074Z,-5.40
2023-03-02T05:00:39.863Z,-5.39
2023-03-02T05:03:28.729Z,-5.39
2023-03-02T05:06:17.724Z,-5.43
2023-03-02T05:09:06.709Z,-5.53
2023-03-02T05:11:56.182Z,-5.62
2023-03-02T05:14:45.837Z,-5.70
2023-03-02T05:17:34.809Z,-5.75
2023-03-02T05:20:27.744Z,-5.72
2023-03-02T05:23:25.179Z,-5.67
2023-03-02T05:26:15.478Z,-5.62
2023-03-02T05:29:04.760Z,-5.56
2023-03-02T05:31:53.873Z,-5.52
2023-03-02T05:34:42.818Z,-5.48
2023-03-02T05:37:31.454Z,-5.47
2023-03-02T05:40:22.147Z,-5.46
2023-03-02T05:43:20.043Z,-5.45
2023-03-02T05:46:09.191Z,-5.45
2023-03-02T05:48:58.074Z,-5.43
2023-03-02T05:51:47.043Z,-5.42
2023-03-02T05:54:35.573Z,-5.41
2023-03-02T05:57:25.190Z,-5.36
2023-03-02T06:00:14.376Z,-5.27
2023-03-02T06:03:03.849Z,-5.17
2023-03-02T06:05:52.730Z,-5.05
2023-03-02T06:08:43.024Z,-4.92
2023-03-02T06:11:31.810Z,-4.83
2023-03-02T06:14:20.644Z,-4.75
2023-03-02T06:17:09.485Z,-4.72
2023-03-02T06:19:58.225Z,-4.69
2023-03-02T06:22:47.684Z,-4.67
2023-03-02T06:25:40.219Z,-4.61
2023-03-02T06:28:29.178Z,-4.53
2023-03-02T06:31:18.051Z,-4.46
2023-03-02T06:34:07.027Z,-4.37
2023-03-02T06:36:55.801Z,-4.29
2023-03-02T06:39:44.546Z,-4.21
2023-03-02T06:42:33.237Z,-4.19
2023-03-02T06:45:22.354Z,-4.15
2023-03-02T06:48:11.481Z,-4.04
2023-03-02T06:51:00.364Z,-3.86
2023-03-02T06:53:48.989Z,-3.66
2023-03-02T06:56:40.643Z,-3.51
2023-03-02T06:59:29.947Z,-3.41
2023-03-02T07:02:18.754Z,-3.32
2023-03-02T07:05:07.850Z,-3.23
2023-03-02T07:07:57.065Z,-3.15
2023-03-02T07:10:45.904Z,-3.06
2023-03-02T07:13:34.964Z,-2.96
2023-03-02T07:16:23.955Z,-2.86
2023-03-02T07:19:14.185Z,-2.76
2023-03-02T07:22:03.157Z,-2.63
2023-03-02T07:24:51.876Z,-2.52
2023-03-02T07:27:42.268Z,-2.48
2023-03-02T07:30:31.436Z,-2.44
2023-03-02T07:33:21.613Z,-2.44
2023-03-02T07:36:10.456Z,-2.47
2023-03-02T07:38:59.603Z,-2.43
2023-03-02T07:41:48.728Z,-2.39
2023-03-02T07:44:37.577Z,-2.29
2023-03-02T07:47:26.338Z,-2.21
2023-03-02T07:50:16.163Z,-2.10
2023-03-02T07:53:05.061Z,-2.02
2023-03-02T07:55:53.886Z,-1.94
2023-03-02T07:58:43.214Z,-1.88
2023-03-02T08:01:32.594Z,-1.81
2023-03-02T08:04:22.276Z,-1.73
2023-03-02T08:07:11.197Z,-1.64
2023-03-02T08:10:01.130Z,-1.54
2023-03-02T08:12:50.200Z,-1.45
2023-03-02T08:15:39.185Z,-1.39
2023-03-02T08:18:29.395Z,-1.30
2023-03-02T08:21:22.978Z,-1.23
2023-03-02T08:24:13.048Z,-1.14
2023-03-02T08:27:02.588Z,-1.03
2023-03-02T08:29:51.372Z,-0.91
2023-03-02T08:32:40.922Z,-0.76
2023-03-02T08:35:29.749Z,-0.62
2023-03-02T08:38:18.641Z,-0.51
2023-03-02T08:41:11.595Z,-0.45
2023-03-02T08:44:00.397Z,-0.36
2023-03-02T08:46:50.789Z,-0.28
2023-03-02T08:49:39.726Z,-0.22
2023-03-02T08:52:28.458Z,-0.16
2023-03-02T08:55:18.928Z,-0.10
2023-03-02T08:58:07.832Z,-0.05
2023-03-02T09:00:56.512Z,0.04
2023-03-02T09:03:45.899Z,0.16
2023-03-02T09:06:38.040Z,0.29
2023-03-02T09:09:26.860Z,0.38
2023-03-02T09:12:15.911Z,0.47
2023-03-02T09:15:05.018Z,0.58
2023-03-02T09:17:53.901Z,0.66
2023-03-02T09:20:42.757Z,0.73
2023-03-02T09:23:32.860Z,0.80
2023-03-02T09:26:22.104Z,0.86
2023-03-02T09:29:11.493Z,0.92
2023-03-02T09:32:00.230Z,1.02
2023-03-02T09:34:49.081Z,1.15
2023-03-02T09:37:39.019Z,1.25
2023-03-02T09:40:29.137Z,1.33
2023-03-02T09:43:21.281Z,1.43
2023-03-02T09:46:35.697Z,1.54
2023-03-02T09:49:35.249Z,1.61
2023-03-02T09:52:40.763Z,1.64
2023-03-02T09:55:35.046Z,1.69
2023-03-02T09:58:27.451Z,1.73
2023-03-02T10:01:22.499Z,1.77
2023-03-02T10:04:34.255Z,1.84
2023-03-02T10:07:35.743Z,1.89
2023-03-02T10:10:33.263Z,1.93
2023-03-02T10:13:52.491Z,1.91
2023-03-02T10:17:00.155Z,1.91
2023-03-02T10:19:59.480Z,1.97
2023-03-02T10:22:53.266Z,2.06
2023-03-02T10:25:52.747Z,2.12
2023-03-02T10:28:47.604Z,2.22
2023-03-02T10:31:40.377Z,2.31
2023-03-02T10:34:30.774Z,2.40
2023-03-02T10:37:25.349Z,2.42
2023-03-02T10:40:39.227Z,2.45
2023-03-02T10:43:36.537Z,2.41
2023-03-02T10:46:25.607Z,2.41
2023-03-02T10:49:32.573Z,2.47
2023-03-02T10:52:26.816Z,2.56
2023-03-02T10:55:16.784Z,2.69
2023-03-02T10:58:20.110Z,2.77
2023-03-02T11:01:18.399Z,2.86
2023-03-02T11:04:15.244Z,2.95
2023-03-02T11:07:24.570Z,2.94
2023-03-02T11:10:44.554Z,2.96
2023-03-02T11:13:36.262Z,3.08
2023-03-02T11:16:32.495Z,3.19
2023-03-02T11:19:32.654Z,3.31
2023-03-02T11:22:31.277Z,3.45
2023-03-02T11:25:42.685Z,3.58
2023-03-02T11:29:03.399Z,3.71
2023-03-02T11:32:11.352Z,3.85
2023-03-02T11:35:45.250Z,3.89
2023-03-02T11:38:47.575Z,3.85
2023-03-02T11:41:36.755Z,3.92
2023-03-02T11:44:27.479Z,4.01
2023-03-02T11:47:18.963Z,4.11
2023-03-02T11:50:14.297Z,4.24
2023-03-02T11:53:12.628Z,4.38
2023-03-02T11:56:01.787Z,4.57
2023-03-02T11:58:56.949Z,4.64
2023-03-02T12:01:51.135Z,4.75
2023-03-02T12:04:40.241Z,4.75
2023-03-02T12:07:29.028Z,4.69
2023-03-02T12:10:32.256Z,4.72
2023-03-02T12:13:27.643Z,4.82
2023-03-02T12:16:24.193Z,4.84
2023-03-02T12:19:17.578Z,4.99
2023-03-02T12:22:10.827Z,5.19
2023-03-02T12:25:24.143Z,5.27
2023-03-02T12:28:28.410Z,5.52
2023-03-02T12:31:17.359Z,5.65
2023-03-02T12:34:21.981Z,5.53
2023-03-02T12:37:23.833Z,5.44
2023-03-02T12:40:28.722Z,5.33
2023-03-02T12:43:29.379Z,5.34
2023-03-02T12:46:27.206Z,5.34
2023-03-02T12:49:42.149Z,5.36
2023-03-02T12:52:30.885Z,5.35
2023-03-02T12:55:20.564Z,5.30
2023-03-02T12:58:30.505Z,5.30
2023-03-02T13:01:30.990Z,5.27
2023-03-02T13:04:22.531Z,5.24
2023-03-02T13:07:19.145Z,5.16
2023-03-02T13:10:28.495Z,5.16
2023-03-02T13:13:25.086Z,5.14
2023-03-02T13:16:25.260Z,5.17
2023-03-02T13:19:18.420Z,5.27
2023-03-02T13:22:08.852Z,5.37
2023-03-02T13:25:03.655Z,5.39
2023-03-02T13:27:58.072Z,5.43
2023-03-02T13:30:56.901Z,5.46
2023-03-02T13:33:47.611Z,5.49
2023-03-02T13:36:38.567Z,5.54
2023-03-02T13:39:31.813Z,5.56
2023-03-02T13:42:41.029Z,5.56
2023-03-02T13:45:31.736Z,5.58
2023-03-02T13:48:21.011Z,5.58
2023-03-02T13:51:19.019Z,5.54
2023-03-02T13:54:22.243Z,5.45
2023-03-02T13:57:16.822Z,5.37
2023-03-02T14:00:06.204Z,5.24
2023-03-02T14:02:55.210Z,5.14
2023-03-02T14:05:44.111Z,5.14
2023-03-02T14:08:33.007Z,5.19
2023-03-02T14:11:21.850Z,5.25
2023-03-02T14:14:21.174Z,5.30
2023-03-02T14:17:17.336Z,5.38
2023-03-02T14:20:06.775Z,5.34
2023-03-02T14:22:55.532Z,5.32
2023-03-02T14:25:44.431Z,5.30
2023-03-02T14:28:36.974Z,5.26
2023-03-02T14:31:27.322Z,5.11
2023-03-02T14:34:17.334Z,4.94
2023-03-02T14:37:11.639Z,4.81
2023-03-02T14:40:00.490Z,4.72
2023-03-02T14:42:51.793Z,4.64
2023-03-02T14:45:40.774Z,4.60
2023-03-02T14:48:29.470Z,4.57
2023-03-02T14:51:26.422Z,4.55
2023-03-02T14:54:19.886Z,4.52
2023-03-02T14:57:30.409Z,4.45
2023-03-02T15:00:19.643Z,4.40
2023-03-02T15:03:22.789Z,4.36
2023-03-02T15:06:25.279Z,4.31
2023-03-02T15:09:13.955Z,4.28
2023-03-02T15:12:02.734Z,4.25
2023-03-02T15:14:53.760Z,4.24
2023-03-02T15:17:43.061Z,4.22
2023-03-02T15:20:32.625Z,4.25
2023-03-02T15:23:21.623Z,4.28
2023-03-02T15:26:11.915Z,4.32
2023-03-02T15:29:00.917Z,4.36
2023-03-02T15:31:50.005Z,4.37
2023-03-02T15:34:39.080Z,4.37
2023-03-02T15:37:30.663Z,4.36
2023-03-02T15:40:19.700Z,4.29
2023-03-02T15:43:08.554Z,4.20
2023-03-02T15:45:57.417Z,4.12
2023-03-02T15:48:46.258Z,4.02
2023-03-02T15:51:35.016Z,3.93
2023-03-02T15:54:25.363Z,3.83
2023-03-02T15:57:14.391Z,3.74
2023-03-02T16:00:06.656Z,3.66
2023-03-02T16:02:55.583Z,3.58
2023-03-02T16:05:44.747Z,3.50
2023-03-02T16:08:33.602Z,3.41
2023-03-02T16:11:23.500Z,3.31
2023-03-02T16:14:15.825Z,3.23
2023-03-02T16:17:04.726Z,3.14
2023-03-02T16:19:53.784Z,3.08
2023-03-02T16:22:42.530Z,3.01
2023-03-02T16:25:33.514Z,2.93
2023-03-02T16:28:22.296Z,2.86
2023-03-02T16:31:14.525Z,2.78
2023-03-02T16:34:07.316Z,2.70
2023-03-02T16:36:56.363Z,2.62
2023-03-02T16:39:45.089Z,2.51
2023-03-02T16:42:33.936Z,2.40
2023-03-02T16:45:23.031Z,2.28
2023-03-02T16:48:12.240Z,2.16
2023-03-02T16:51:02.867Z,2.02
2023-03-02T16:53:51.913Z,1.90
2023-03-02T16:56:45.218Z,1.80
2023-03-02T16:59:34.037Z,1.73
2023-03-02T17:02:22.766Z,1.65
2023-03-02T17:05:13.489Z,1.56
2023-03-02T17:08:02.840Z,1.48
2023-03-02T17:10:54.209Z,1.41
2023-03-02T17:13:43.081Z,1.32
2023-03-02T17:16:31.872Z,1.21
2023-03-02T17:19:21.171Z,1.09
2023-03-02T17:22:10.652Z,1.00
2023-03-02T17:25:02.370Z,0.91
2023-03-02T17:27:52.508Z,0.84
2023-03-02T17:30:42.361Z,0.75
2023-03-02T17:33:32.267Z,0.64
2023-03-02T17:36:20.980Z,0.55
2023-03-02T17:39:10.392Z,0.47
2023-03-02T17:41:59.263Z,0.45
2023-03-02T17:44:48.217Z,0.42
2023-03-02T17:47:36.960Z,0.39
2023-03-02T17:50:26.929Z,0.35
2023-03-02T17:53:16.380Z,0.29
2023-03-02T17:56:05.382Z,0.21
2023-03-02T17:58:59.777Z,0.13
2023-03-02T18:01:48.916Z,0.05
2023-03-02T18:04:37.571Z,-0.02
2023-03-02T18:07:26.552Z,-0.09
2023-03-02T18:10:15.886Z,-0.15
2023-03-02T18:13:04.799Z,-0.21
2023-03-02T18:15:53.551Z,-0.24
2023-03-02T18:18:42.916Z,-0.27
2023-03-02T18:21:32.246Z,-0.29
2023-03-02T18:24:21.441Z,-0.30
2023-03-02T18:27:10.169Z,-0.33
2023-03-02T18:29:59.073Z,-0.37
2023-03-02T18:32:48.088Z,-0.41
2023-03-02T18:35:36.867Z,-0.45
2023-03-02T18:38:30.784Z,-0.53
2023-03-02T18:41:20.247Z,-0.59
2023-03-02T18:44:10.167Z,-0.61
2023-03-02T18:47:01.018Z,-0.63
2023-03-02T18:49:49.887Z,-0.64
2023-03-02T18:52:38.797Z,-0.64
2023-03-02T18:55:27.725Z,-0.63
2023-03-02T18:58:19.632Z,-0.65
2023-03-02T19:01:08.842Z,-0.67
2023-03-02T19:03:58.184Z,-0.71
2023-03-02T19:06:47.038Z,-0.76
2023-03-02T19:09:36.066Z,-0.80
2023-03-02T19:12:24.796Z,-0.87
2023-03-02T19:15:13.682Z,-0.94
2023-03-02T19:18:02.606Z,-0.99
2023-03-02T19:20:54.400Z,-1.00
2023-03-02T19:23:46.646Z,-1.01
2023-03-02T19:26:35.913Z,-1.04
2023-03-02T19:29:24.639Z,-1.12
2023-03-02T19:32:15.002Z,-1.18
2023-03-02T19:35:04.200Z,-1.21
2023-03-02T19:37:53.162Z,-1.22
2023-03-02T19:40:41.944Z,-1.25
2023-03-02T19:43:30.916Z,-1.29
2023-03-02T19:46:19.837Z,-1.34
2023-03-02T19:49:08.693Z,-1.39
2023-03-02T19:51:59.051Z,-1.44
2023-03-02T19:54:48.074Z,-1.48
2023-03-02T19:57:38.081Z,-1.51
2023-03-02T20:00:29.251Z,-1.54
2023-03-02T20:03:20.274Z,-1.54
2023-03-02T20:06:09.232Z,-1.55
2023-03-02T20:09:04.284Z,-1.55
2023-03-02T20:11:53.226Z,-1.56
2023-03-02T20:14:44.207Z,-1.62
2023-03-02T20:17:34.174Z,-1.65
2023-03-02T20:20:24.758Z,-1.70
2023-03-02T20:23:15.377Z,-1.74
2023-03-02T20:26:07.318Z,-1.77
2023-03-02T20:28:59.756Z,-1.81
2023-03-02T20:31:48.992Z,-1.82
2023-03-02T20:34:41.079Z,-1.85
2023-03-02T20:37:30.016Z,-1.91
2023-03-02T20:40:19.453Z,-1.95
2023-03-02T20:43:08.618Z,-1.99
2023-03-02T20:45:58.569Z,-2.02
2023-03-02T20:48:47.958Z,-2.06
2023-03-02T20:51:38.580Z,-2.07
2023-03-02T20:54:31.814Z,-2.09
2023-03-02T20:57:21.576Z,-2.12
2023-03-02T21:00:17.174Z,-2.15
2023-03-02T21:03:07.560Z,-2.19
2023-03-02T21:05:56.555Z,-2.22
2023-03-02T21:08:45.909Z,-2.22
2023-03-02T21:11:34.845Z,-2.21
2023-03-02T21:14:23.648Z,-2.21
2023-03-02T21:17:12.732Z,-2.19
2023-03-02T21:20:01.665Z,-2.17
2023-03-02T21:22:50.406Z,-2.15
2023-03-02T21:25:42.147Z,-2.17
2023-03-02T21:28:31.073Z,-2.21
2023-03-02T21:31:19.932Z,-2.27
2023-03-02T21:34:08.676Z,-2.36
2023-03-02T21:36:58.110Z,-2.44
2023-03-02T21:39:47.232Z,-2.51
2023-03-02T21:42:36.459Z,-2.59
2023-03-02T21:45:25.221Z,-2.62
2023-03-02T21:48:15.097Z,-2.61
2023-03-02T21:51:04.328Z,-2.60
2023-03-02T21:53:53.456Z,-2.60
2023-03-02T21:56:43.669Z,-2.61
2023-03-02T21:59:32.779Z,-2.63
2023-03-02T22:02:21.624Z,-2.65
2023-03-02T22:05:10.524Z,-2.66
2023-03-02T22:07:59.559Z,-2.66
2023-03-02T22:10:52.226Z,-2.63
2023-03-02T22:13:42.559Z,-2.61
2023-03-02T22:16:37.309Z,-2.57
2023-03-02T22:19:29.352Z,-2.50
2023-03-02T22:22:27.322Z,-2.45
2023-03-02T22:25:18.679Z,-2.39
2023-03-02T22:28:28.203Z,-2.35
2023-03-02T22:31:22.500Z,-2.29
2023-03-02T22:34:23.151Z,-2.24
2023-03-02T22:37:14.936Z,-2.20
2023-03-02T22:40:22.102Z,-2.14
2023-03-02T22:43:34.179Z,-2.10
2023-03-02T22:46:23.085Z,-2.05
2023-03-02T22:49:17.806Z,-2.00
2023-03-02T22:52:14.110Z,-1.95
2023-03-02T22:55:23.308Z,-1.93
2023-03-02T22:58:49.174Z,-1.93
2023-03-02T23:01:43.302Z,-1.99
2023-03-02T23:04:36.802Z,-2.03
2023-03-02T23:07:26.013Z,-2.06
2023-03-02T23:10:22.217Z,-2.05
2023-03-02T23:13:13.952Z,-2.05
2023-03-02T23:16:13.299Z,-2.03
2023-03-02T23:19:04.147Z,-1.98
2023-03-02T23:21:53.409Z,-1.93
2023-03-02T23:24:43.097Z,-1.92
2023-03-02T23:27:32.028Z,-1.87
2023-03-02T23:30:22.575Z,-1.82
2023-03-02T23:33:11.277Z,-1.77
2023-03-02T23:36:00.901Z,-1.72
2023-03-02T23:38:51.167Z,-1.70
2023-03-02T23:41:40.005Z,-1.73
2023-03-02T23:44:29.242Z,-1.75
2023-03-02T23:47:17.974Z,-1.78
2023-03-02T23:50:08.901Z,-1.83
2023-03-02T23:52:57.663Z,-1.86
2023-03-02T23:55:52.246Z,-1.85
2023-03-02T23:58:41.064Z,-1.82
